createdAt,value
2024-04-18T00:00:09.489Z,99466.09
2024-04-18T00:03:01.409Z,99457.67
2024-04-18T00:05:33.119Z,99437.76
2024-04-18T00:08:01.446Z,99435.84
2024-04-18T00:10:29.809Z,99438.36
2024-04-18T00:12:58.031Z,99433.27
2024-04-18T00:15:26.985Z,99447.19
2024-04-18T00:17:58.158Z,99458.98
2024-04-18T00:20:26.835Z,99458.44
2024-04-18T00:22:55.188Z,99468.75
2024-04-18T00:25:33.304Z,99476.73
2024-04-18T00:28:01.990Z,99480.64
2024-04-18T00:30:43.460Z,99480.80
2024-04-18T00:33:12.995Z,99482.01
2024-04-18T00:35:42.090Z,99483.60
2024-04-18T00:38:13.625Z,99486.35
2024-04-18T00:40:45.857Z,99487.32
2024-04-18T00:43:23.084Z,99485.40
2024-04-18T00:45:57.536Z,99493.61
2024-04-18T00:48:27.492Z,99502.83
2024-04-18T00:51:00.592Z,99513.54
2024-04-18T00:53:30.778Z,99521.45
2024-04-18T00:56:19.390Z,99523.31
2024-04-18T00:58:49.644Z,99519.06
2024-04-18T01:01:21.927Z,99514.23
2024-04-18T01:03:58.031Z,99515.50
2024-04-18T01:06:43.555Z,99510.66
2024-04-18T01:09:18.602Z,99496.17
2024-04-18T01:12:06.167Z,99498.65
2024-04-18T01:14:34.586Z,99501.44
2024-04-18T01:17:04.696Z,99496.11
2024-04-18T01:19:33.390Z,99487.30
2024-04-18T01:22:05.082Z,99495.56
2024-04-18T01:24:34.801Z,99508.52
2024-04-18T01:27:03.235Z,99523.70
2024-04-18T01:29:44.145Z,99526.00
2024-04-18T01:32:41.867Z,99518.65
2024-04-18T01:35:10.985Z,99517.41
2024-04-18T01:37:48.951Z,99518.81
2024-04-18T01:40:17.927Z,99518.60
2024-04-18T01:43:08.041Z,99512.33
2024-04-18T01:45:56.357Z,99505.52
2024-04-18T01:48:25.056Z,99494.29
2024-04-18T01:51:25.709Z,99490.50
2024-04-18T01:53:54.009Z,99485.65
2024-04-18T01:56:22.401Z,99486.76
2024-04-18T01:58:50.835Z,99485.52
2024-04-18T02:01:25.023Z,99472.83
2024-04-18T02:03:53.540Z,99471.26
2024-04-18T02:06:22.167Z,99469.90
2024-04-18T02:08:50.681Z,99479.35
2024-04-18T02:11:19.556Z,99495.19
2024-04-18T02:14:06.548Z,99504.11
2024-04-18T02:16:34.924Z,99492.39
2024-04-18T02:19:22.294Z,99480.90
2024-04-18T02:21:59.948Z,99481.31
2024-04-18T02:25:08.067Z,99481.88
2024-04-18T02:27:40.685Z,99478.20
2024-04-18T02:30:26.903Z,99480.89
2024-04-18T02:33:28.623Z,99478.88
2024-04-18T02:36:17.317Z,99472.20
2024-04-18T02:38:45.889Z,99467.29
2024-04-18T02:41:14.566Z,99467.53
2024-04-18T02:43:55.781Z,99476.50
2024-04-18T02:46:24.938Z,99496.83
2024-04-18T02:49:11.822Z,99503.89
2024-04-18T02:51:58.687Z,99508.94
2024-04-18T02:54:45.686Z,99504.91
2024-04-18T02:57:14.415Z,99496.50
2024-04-18T02:59:43.057Z,99484.06
2024-04-18T03:02:27.435Z,99482.35
2024-04-18T03:05:18.086Z,99495.31
2024-04-18T03:07:58.256Z,99501.99
2024-04-18T03:10:51.134Z,99507.66
2024-04-18T03:13:39.534Z,99505.85
2024-04-18T03:16:27.853Z,99498.71
2024-04-18T03:18:56.489Z,99485.39
2024-04-18T03:21:25.276Z,99472.76
2024-04-18T03:24:24.192Z,99471.77
2024-04-18T03:26:53.657Z,99468.98
2024-04-18T03:29:22.141Z,99465.13
2024-04-18T03:31:59.646Z,99471.45
2024-04-18T03:34:46.450Z,99474.23
2024-04-18T03:37:14.924Z,99478.71
2024-04-18T03:39:43.314Z,99476.33
2024-04-18T03:42:11.905Z,99472.35
2024-04-18T03:44:55.843Z,99460.50
2024-04-18T03:47:25.191Z,99457.72
2024-04-18T03:50:11.628Z,99469.94
2024-04-18T03:52:40.679Z,99471.20
2024-04-18T03:55:27.981Z,99460.16
2024-04-18T03:57:56.431Z,99468.73
2024-04-18T04:00:43.620Z,99473.45
2024-04-18T04:03:12.116Z,99469.06
2024-04-18T04:05:40.852Z,99470.15
2024-04-18T04:08:10.541Z,99472.54
2024-04-18T04:10:43.230Z,99478.11
2024-04-18T04:13:11.629Z,99483.61
2024-04-18T04:15:44.206Z,99480.47
2024-04-18T04:18:12.778Z,99483.63
2024-04-18T04:20:45.250Z,99485.30
2024-04-18T04:23:13.591Z,99482.75
2024-04-18T04:25:57.670Z,99479.35
2024-04-18T04:28:26.268Z,99481.20
2024-04-18T04:30:54.875Z,99474.36
2024-04-18T04:33:23.659Z,99479.80
2024-04-18T04:35:52.217Z,99486.01
2024-04-18T04:38:20.504Z,99483.34
2024-04-18T04:40:49.116Z,99482.14
2024-04-18T04:43:17.555Z,99480.55
2024-04-18T04:45:46.053Z,99476.70
2024-04-18T04:48:14.980Z,99471.13
2024-04-18T04:51:11.892Z,99473.63
2024-04-18T04:53:40.591Z,99469.11
2024-04-18T04:56:10.050Z,99471.45
2024-04-18T04:58:38.348Z,99471.78
2024-04-18T05:01:07.026Z,99468.91
2024-04-18T05:03:38.877Z,99468.45
2024-04-18T05:06:25.530Z,99470.80
2024-04-18T05:09:15.817Z,99467.77
2024-04-18T05:11:44.492Z,99469.61
2024-04-18T05:14:31.692Z,99468.29
2024-04-18T05:17:00.160Z,99468.50
2024-04-18T05:19:28.876Z,99472.58
2024-04-18T05:21:57.274Z,99477.59
2024-04-18T05:24:35.792Z,99472.20
2024-04-18T05:27:04.743Z,99477.77
2024-04-18T05:29:51.690Z,99484.30
2024-04-18T05:32:20.158Z,99486.23
2024-04-18T05:35:07.185Z,99483.52
2024-04-18T05:37:35.670Z,99484.67
2024-04-18T05:40:04.722Z,99487.16
2024-04-18T05:42:33.321Z,99490.09
2024-04-18T05:45:11.556Z,99492.03
2024-04-18T05:48:19.928Z,99488.02
2024-04-18T05:50:48.461Z,99484.58
2024-04-18T05:53:22.856Z,99488.62
2024-04-18T05:55:56.918Z,99491.95
2024-04-18T05:58:25.279Z,99495.08
2024-04-18T06:00:57.612Z,99495.77
2024-04-18T06:03:27.237Z,99496.63
2024-04-18T06:05:58.070Z,99502.52
2024-04-18T06:08:27.050Z,99510.70
2024-04-18T06:10:55.362Z,99512.84
2024-04-18T06:13:25.859Z,99512.41
2024-04-18T06:15:54.790Z,99514.45
2024-04-18T06:18:23.697Z,99519.05
2024-04-18T06:20:52.375Z,99511.81
2024-04-18T06:23:20.886Z,99517.05
2024-04-18T06:26:08.133Z,99517.73
2024-04-18T06:28:36.321Z,99522.52
2024-04-18T06:31:04.616Z,99521.37
2024-04-18T06:33:33.246Z,99517.79
2024-04-18T06:36:03.223Z,99518.87
2024-04-18T06:38:31.552Z,99523.64
2024-04-18T06:40:59.879Z,99523.20
2024-04-18T06:43:42.723Z,99523.41
2024-04-18T06:46:11.211Z,99523.58
2024-04-18T06:48:39.664Z,99519.48
2024-04-18T06:51:08.355Z,99523.29
2024-04-18T06:53:36.912Z,99526.52
2024-04-18T06:56:05.373Z,99531.58
2024-04-18T06:58:33.897Z,99535.27
2024-04-18T07:01:02.330Z,99532.76
2024-04-18T07:03:31.790Z,99537.99
2024-04-18T07:06:00.447Z,99537.88
2024-04-18T07:08:29.369Z,99541.88
2024-04-18T07:10:57.640Z,99540.98
2024-04-18T07:13:34.610Z,99543.14
2024-04-18T07:16:22.657Z,99546.55
2024-04-18T07:18:57.651Z,99541.54
2024-04-18T07:21:26.440Z,99543.74
2024-04-18T07:24:15.040Z,99541.33
2024-04-18T07:26:43.678Z,99548.33
2024-04-18T07:29:12.101Z,99548.05
2024-04-18T07:31:40.544Z,99545.36
2024-04-18T07:34:16.132Z,99544.55
2024-04-18T07:36:47.719Z,99545.95
2024-04-18T07:39:16.439Z,99544.40
2024-04-18T07:41:44.864Z,99550.79
2024-04-18T07:44:13.584Z,99554.09
2024-04-18T07:46:42.134Z,99551.40
2024-04-18T07:49:11.907Z,99555.70
2024-04-18T07:51:40.722Z,99557.42
2024-04-18T07:54:09.537Z,99556.98
2024-04-18T07:56:38.537Z,99565.39
2024-04-18T07:59:07.602Z,99573.00
2024-04-18T08:01:38.384Z,99568.27
2024-04-18T08:04:27.505Z,99562.00
2024-04-18T08:06:58.831Z,99561.26
2024-04-18T08:09:32.308Z,99561.52
2024-04-18T08:12:23.239Z,99558.98
2024-04-18T08:14:55.575Z,99560.08
2024-04-18T08:17:28.116Z,99563.36
2024-04-18T08:19:56.544Z,99565.33
2024-04-18T08:22:26.036Z,99555.65
2024-04-18T08:24:54.563Z,99563.70
2024-04-18T08:27:23.011Z,99565.13
2024-04-18T08:29:51.864Z,99566.94
2024-04-18T08:32:20.555Z,99569.77
2024-04-18T08:34:49.368Z,99571.27
2024-04-18T08:37:17.731Z,99572.34
2024-04-18T08:39:46.100Z,99572.95
2024-04-18T08:42:15.515Z,99568.39
2024-04-18T08:44:44.188Z,99568.23
2024-04-18T08:47:16.256Z,99568.41
2024-04-18T08:49:46.068Z,99574.77
2024-04-18T08:52:15.857Z,99581.28
2024-04-18T08:54:44.405Z,99585.42
2024-04-18T08:57:20.234Z,99585.52
2024-04-18T09:00:00.196Z,99584.30
2024-04-18T09:02:28.886Z,99585.32
2024-04-18T09:04:59.928Z,99588.25
2024-04-18T09:07:28.280Z,99581.08
2024-04-18T09:10:07.361Z,99580.15
2024-04-18T09:12:36.679Z,99579.76
2024-04-18T09:15:05.788Z,99579.19
2024-04-18T09:17:34.570Z,99581.23
2024-04-18T09:20:04.809Z,99581.02
2024-04-18T09:22:34.463Z,99573.42
2024-04-18T09:25:07.763Z,99572.59
2024-04-18T09:27:37.085Z,99570.47
2024-04-18T09:30:06.644Z,99575.61
2024-04-18T09:32:35.306Z,99575.83
2024-04-18T09:35:05.474Z,99578.52
2024-04-18T09:37:34.446Z,99582.20
2024-04-18T09:40:05.952Z,99585.23
2024-04-18T09:42:43.384Z,99586.32
2024-04-18T09:45:16.057Z,99592.94
2024-04-18T09:47:45.027Z,99592.41
2024-04-18T09:50:14.797Z,99592.83
2024-04-18T09:52:46.375Z,99590.61
2024-04-18T09:55:16.708Z,99584.44
2024-04-18T09:57:47.799Z,99577.33
2024-04-18T10:00:18.063Z,99573.75
2024-04-18T10:02:48.465Z,99575.42
2024-04-18T10:05:17.034Z,99574.48
2024-04-18T10:07:46.685Z,99572.48
2024-04-18T10:10:17.271Z,99567.09
2024-04-18T10:12:45.929Z,99563.08
2024-04-18T10:15:19.976Z,99558.56
2024-04-18T10:17:48.794Z,99556.02
2024-04-18T10:20:17.610Z,99557.48
2024-04-18T10:22:56.529Z,99554.80
2024-04-18T10:25:26.013Z,99559.17
2024-04-18T10:27:54.572Z,99553.46
2024-04-18T10:30:25.668Z,99554.99
2024-04-18T10:32:56.602Z,99558.77
2024-04-18T10:35:26.775Z,99557.95
2024-04-18T10:37:59.174Z,99551.77
2024-04-18T10:40:27.854Z,99551.45
2024-04-18T10:43:29.168Z,99554.52
2024-04-18T10:45:57.877Z,99555.90
2024-04-18T10:48:26.582Z,99556.99
2024-04-18T10:50:55.351Z,99556.29
2024-04-18T10:53:24.240Z,99552.93
2024-04-18T10:55:53.052Z,99556.74
2024-04-18T10:58:21.927Z,99557.08
2024-04-18T11:00:56.465Z,99557.41
2024-04-18T11:03:25.399Z,99557.45
2024-04-18T11:05:54.969Z,99556.90
2024-04-18T11:08:25.742Z,99563.66
2024-04-18T11:10:54.510Z,99567.02
2024-04-18T11:13:23.372Z,99571.45
2024-04-18T11:15:51.848Z,99570.76
2024-04-18T11:18:22.986Z,99573.67
2024-04-18T11:20:53.683Z,99575.63
2024-04-18T11:23:35.526Z,99577.77
2024-04-18T11:26:12.573Z,99574.97
2024-04-18T11:28:41.555Z,99571.27
2024-04-18T11:31:09.951Z,99570.43
2024-04-18T11:33:39.182Z,99571.53
2024-04-18T11:36:08.691Z,99563.30
2024-04-18T11:38:36.969Z,99571.52
2024-04-18T11:41:05.361Z,99567.79
2024-04-18T11:43:33.946Z,99565.16
2024-04-18T11:46:02.705Z,99559.80
2024-04-18T11:48:31.080Z,99559.20
2024-04-18T11:50:59.794Z,99561.69
2024-04-18T11:53:28.166Z,99556.91
2024-04-18T11:55:58.204Z,99556.11
2024-04-18T11:58:30.172Z,99553.45
2024-04-18T12:00:59.072Z,99544.40
2024-04-18T12:03:41.547Z,99543.55
2024-04-18T12:06:29.010Z,99541.75
2024-04-18T12:08:57.581Z,99538.39
2024-04-18T12:11:32.222Z,99537.30
2024-04-18T12:14:13.935Z,99533.70
2024-04-18T12:16:57.788Z,99528.78
2024-04-18T12:19:45.069Z,99528.89
2024-04-18T12:22:33.022Z,99531.76
2024-04-18T12:25:17.290Z,99529.73
2024-04-18T12:27:47.179Z,99528.89
2024-04-18T12:30:34.784Z,99528.95
2024-04-18T12:33:21.438Z,99525.15
2024-04-18T12:35:49.884Z,99528.30
2024-04-18T12:38:18.333Z,99528.70
2024-04-18T12:40:46.960Z,99530.48
2024-04-18T12:43:18.653Z,99527.71
2024-04-18T12:46:06.698Z,99525.41
2024-04-18T12:48:53.755Z,99537.73
2024-04-18T12:51:22.585Z,99536.66
2024-04-18T12:53:53.176Z,99535.99
2024-04-18T12:56:48.405Z,99533.40
2024-04-18T12:59:24.390Z,99540.06
2024-04-18T13:01:52.905Z,99532.73
2024-04-18T13:04:21.886Z,99535.52
2024-04-18T13:06:50.414Z,99544.71
2024-04-18T13:09:34.499Z,99535.08
2024-04-18T13:12:04.472Z,99538.43
2024-04-18T13:14:52.126Z,99540.67
2024-04-18T13:17:21.319Z,99536.84
2024-04-18T13:19:49.694Z,99537.69
2024-04-18T13:22:17.987Z,99538.30
2024-04-18T13:24:47.163Z,99534.20
2024-04-18T13:27:32.481Z,99533.96
2024-04-18T13:30:01.047Z,99535.62
2024-04-18T13:32:40.734Z,99534.84
2024-04-18T13:35:09.711Z,99537.49
2024-04-18T13:37:38.425Z,99536.79
2024-04-18T13:40:22.233Z,99538.45
2024-04-18T13:43:02.990Z,99548.28
2024-04-18T13:45:32.719Z,99545.84
2024-04-18T13:48:03.086Z,99545.75
2024-04-18T13:50:45.202Z,99547.09
2024-04-18T13:53:16.672Z,99548.20
2024-04-18T13:55:50.738Z,99550.85
2024-04-18T13:58:21.441Z,99551.30
2024-04-18T14:01:00.423Z,99545.51
2024-04-18T14:03:29.980Z,99547.55
2024-04-18T14:06:09.360Z,99554.21
2024-04-18T14:08:39.185Z,99559.80
2024-04-18T14:11:27.882Z,99556.59
2024-04-18T14:14:09.946Z,99560.36
2024-04-18T14:16:57.416Z,99557.83
2024-04-18T14:19:34.742Z,99563.59
2024-04-18T14:22:08.985Z,99567.13
2024-04-18T14:24:37.292Z,99573.36
2024-04-18T14:27:05.869Z,99572.27
2024-04-18T14:29:34.148Z,99576.09
2024-04-18T14:32:02.898Z,99577.41
2024-04-18T14:34:49.611Z,99582.66
2024-04-18T14:37:18.442Z,99594.40
2024-04-18T14:39:47.930Z,99611.36
2024-04-18T14:42:17.306Z,99637.17
2024-04-18T14:44:46.694Z,99664.42
2024-04-18T14:47:18.280Z,99669.66
2024-04-18T14:50:03.572Z,99671.54
2024-04-18T14:52:37.222Z,99685.09
2024-04-18T14:55:30.592Z,99691.55
2024-04-18T14:58:17.367Z,99696.60
2024-04-18T15:00:53.001Z,99697.88
2024-04-18T15:03:22.511Z,99701.55
2024-04-18T15:05:59.988Z,99699.96
2024-04-18T15:08:39.046Z,99702.52
2024-04-18T15:11:23.706Z,99700.71
2024-04-18T15:14:06.255Z,99704.63
2024-04-18T15:16:35.227Z,99709.98
2024-04-18T15:19:03.907Z,99708.95
2024-04-18T15:21:51.207Z,99705.59
2024-04-18T15:24:23.421Z,99708.98
2024-04-18T15:27:06.633Z,99711.73
2024-04-18T15:29:35.251Z,99717.88
2024-04-18T15:32:22.288Z,99720.97
2024-04-18T15:34:51.770Z,99724.17
2024-04-18T15:37:52.332Z,99725.14
2024-04-18T15:40:33.927Z,99722.67
2024-04-18T15:43:25.329Z,99726.80
2024-04-18T15:45:54.433Z,99731.70
2024-04-18T15:48:23.191Z,99734.14
2024-04-18T15:50:54.261Z,99743.80
2024-04-18T15:53:31.959Z,99745.88
2024-04-18T15:56:09.468Z,99750.42
2024-04-18T15:58:56.872Z,99758.05
2024-04-18T16:01:25.437Z,99757.05
2024-04-18T16:04:12.975Z,99759.89
2024-04-18T16:07:17.310Z,99771.57
2024-04-18T16:10:15.040Z,99780.16
2024-04-18T16:12:53.516Z,99783.20
2024-04-18T16:15:21.708Z,99779.55
2024-04-18T16:18:03.457Z,99789.86
2024-04-18T16:20:32.301Z,99787.27
2024-04-18T16:23:06.825Z,99786.71
2024-04-18T16:25:39.454Z,99790.26
2024-04-18T16:28:07.850Z,99791.75
2024-04-18T16:30:45.361Z,99796.52
2024-04-18T16:33:13.973Z,99803.54
2024-04-18T16:35:45.642Z,99813.98
2024-04-18T16:38:15.242Z,99817.69
2024-04-18T16:40:53.651Z,99828.91
2024-04-18T16:43:36.111Z,99831.27
2024-04-18T16:46:07.032Z,99828.98
2024-04-18T16:48:35.830Z,99832.89
2024-04-18T16:51:04.742Z,99833.03
2024-04-18T16:53:53.729Z,99845.19
2024-04-18T16:56:23.662Z,99850.04
2024-04-18T16:58:56.053Z,99848.60
2024-04-18T17:01:24.433Z,99848.33
2024-04-18T17:03:53.083Z,99853.04
2024-04-18T17:06:44.909Z,99845.73
2024-04-18T17:09:17.615Z,99836.12
2024-04-18T17:11:46.956Z,99834.38
2024-04-18T17:14:39.790Z,99848.71
2024-04-18T17:17:08.269Z,99859.56
2024-04-18T17:19:55.646Z,99870.00
2024-04-18T17:22:24.129Z,99872.98
2024-04-18T17:24:52.719Z,99868.52
2024-04-18T17:27:21.210Z,99863.13
2024-04-18T17:29:49.568Z,99879.94
2024-04-18T17:32:17.948Z,99882.64
2024-04-18T17:34:46.474Z,99885.28
2024-04-18T17:37:37.816Z,99888.06
2024-04-18T17:40:22.197Z,99886.52
2024-04-18T17:43:09.417Z,99885.27
2024-04-18T17:45:37.987Z,99886.38
2024-04-18T17:48:16.512Z,99887.80
2024-04-18T17:50:45.435Z,99888.25
2024-04-18T17:53:13.662Z,99891.73
2024-04-18T17:55:41.964Z,99892.90
2024-04-18T17:58:10.510Z,99899.85
2024-04-18T18:00:39.025Z,99902.25
2024-04-18T18:03:07.485Z,99909.09
2024-04-18T18:05:39.190Z,99912.65
2024-04-18T18:08:26.215Z,99920.71
2024-04-18T18:10:54.672Z,99925.08
2024-04-18T18:13:23.183Z,99925.46
2024-04-18T18:15:51.794Z,99930.59
2024-04-18T18:18:20.216Z,99931.23
2024-04-18T18:20:48.910Z,99932.39
2024-04-18T18:23:17.400Z,99932.81
2024-04-18T18:25:45.878Z,99934.08
2024-04-18T18:28:14.485Z,99932.45
2024-04-18T18:31:01.782Z,99933.52
2024-04-18T18:33:30.427Z,99937.04
2024-04-18T18:35:58.751Z,99934.14
2024-04-18T18:38:27.138Z,99937.31
2024-04-18T18:40:55.385Z,99939.25
2024-04-18T18:43:24.869Z,99941.77
2024-04-18T18:45:53.741Z,99945.84
2024-04-18T18:48:22.584Z,99949.89
2024-04-18T18:51:06.682Z,99950.84
2024-04-18T18:53:35.491Z,99959.02
2024-04-18T18:56:04.346Z,99963.41
2024-04-18T18:58:51.647Z,99967.89
2024-04-18T19:01:23.242Z,99967.77
2024-04-18T19:04:11.836Z,99972.52
2024-04-18T19:06:40.353Z,99975.61
2024-04-18T19:09:09.991Z,99981.05
2024-04-18T19:11:39.516Z,99976.44
2024-04-18T19:14:08.355Z,99982.90
2024-04-18T19:16:59.229Z,99979.06
2024-04-18T19:19:27.528Z,99982.01
2024-04-18T19:21:56.178Z,99984.63
2024-04-18T19:24:24.645Z,99989.77
2024-04-18T19:27:01.357Z,99989.15
2024-04-18T19:32:01.228Z,99994.34
2024-04-18T19:34:29.543Z,99999.50
2024-04-18T19:36:57.899Z,99998.02
2024-04-18T19:39:26.140Z,100004.13
2024-04-18T19:42:01.600Z,100002.71
2024-04-18T19:44:31.742Z,100004.12
2024-04-18T19:47:00.186Z,100010.52
2024-04-18T19:49:29.857Z,100010.84
2024-04-18T19:52:01.584Z,100015.70
2024-04-18T19:54:31.982Z,100011.89
2024-04-18T19:57:00.882Z,100012.74
2024-04-18T19:59:29.421Z,100012.00
2024-04-18T20:01:57.941Z,100006.81
2024-04-18T20:04:26.178Z,100010.05
2024-04-18T20:06:54.537Z,100010.60
2024-04-18T20:09:23.021Z,100017.73
2024-04-18T20:11:51.426Z,100019.80
2024-04-18T20:14:22.950Z,100021.88
2024-04-18T20:16:51.346Z,100024.30
2024-04-18T20:19:20.952Z,100024.20
2024-04-18T20:21:49.308Z,100029.58
2024-04-18T20:24:17.992Z,100028.80
2024-04-18T20:27:05.550Z,100032.38
2024-04-18T20:29:46.764Z,100033.39
2024-04-18T20:32:25.868Z,100038.73
2024-04-18T20:34:55.197Z,100038.58
2024-04-18T20:37:24.805Z,100041.41
2024-04-18T20:39:57.560Z,100043.61
2024-04-18T20:42:28.102Z,100052.35
2024-04-18T20:45:04.268Z,100050.11
2024-04-18T20:47:32.941Z,100051.50
2024-04-18T20:50:08.919Z,100056.45
2024-04-18T20:52:40.812Z,100061.34
2024-04-18T20:55:09.593Z,100072.23
2024-04-18T20:57:38.010Z,100074.68
2024-04-18T21:00:07.355Z,100074.40
2024-04-18T21:02:35.892Z,100072.20
2024-04-18T21:05:06.473Z,100071.55
2024-04-18T21:07:34.767Z,100070.72
2024-04-18T21:10:03.393Z,100076.06
2024-04-18T21:12:31.879Z,100077.23
2024-04-18T21:15:00.515Z,100079.67
2024-04-18T21:17:28.963Z,100083.08
2024-04-18T21:19:57.592Z,100090.19
2024-04-18T21:22:25.906Z,100094.08
2024-04-18T21:24:54.181Z,100097.30
2024-04-18T21:27:22.785Z,100095.95
2024-04-18T21:29:51.155Z,100099.04
2024-04-18T21:32:19.572Z,100102.93
2024-04-18T21:34:48.064Z,100107.02
2024-04-18T21:37:16.670Z,100108.88
2024-04-18T21:39:45.376Z,100111.48
2024-04-18T21:42:13.652Z,100114.12
2024-04-18T21:44:41.892Z,100120.10
2024-04-18T21:47:11.314Z,100125.92
2024-04-18T21:49:39.785Z,100135.21
2024-04-18T21:52:08.265Z,100132.94
2024-04-18T21:54:37.273Z,100137.52
2024-04-18T21:57:07.032Z,100136.86
2024-04-18T21:59:36.532Z,100143.25
2024-04-18T22:02:05.224Z,100147.04
2024-04-18T22:04:33.849Z,100149.73
2024-04-18T22:07:02.122Z,100152.39
2024-04-18T22:09:30.701Z,100155.91
2024-04-18T22:11:59.360Z,100163.48
2024-04-18T22:14:27.872Z,100171.41
2024-04-18T22:16:56.676Z,100176.53
2024-04-18T22:19:25.673Z,100184.70
2024-04-18T22:21:54.263Z,100185.65
2024-04-18T22:24:22.483Z,100196.79
2024-04-18T22:26:50.793Z,100190.86
2024-04-18T22:29:19.230Z,100191.05
2024-04-18T22:31:47.442Z,100187.03
2024-04-18T22:34:24.667Z,100184.52
2024-04-18T22:37:01.252Z,100189.77
2024-04-18T22:39:29.623Z,100190.59
2024-04-18T22:41:58.098Z,100198.00
2024-04-18T22:44:26.483Z,100197.88
2024-04-18T22:46:54.972Z,100200.70
2024-04-18T22:49:23.188Z,100204.11
2024-04-18T22:51:51.556Z,100209.23
2024-04-18T22:54:19.939Z,100211.31
2024-04-18T22:57:06.602Z,100221.87
2024-04-18T22:59:35.020Z,100227.27
2024-04-18T23:02:03.572Z,100230.97
2024-04-18T23:04:32.096Z,100232.92
2024-04-18T23:07:00.442Z,100234.94
2024-04-18T23:09:28.856Z,100239.27
2024-04-18T23:11:57.082Z,100245.38
2024-04-18T23:14:25.286Z,100247.44
2024-04-18T23:16:53.542Z,100252.96
2024-04-18T23:19:21.746Z,100254.21
2024-04-18T23:21:50.162Z,100258.29
2024-04-18T23:24:37.229Z,100267.56
2024-04-18T23:27:05.517Z,100267.27
2024-04-18T23:29:34.059Z,100272.35
2024-04-18T23:32:02.707Z,100275.35
2024-04-18T23:34:31.357Z,100280.95
2024-04-18T23:37:03.184Z,100282.70
2024-04-18T23:39:31.619Z,100286.54
2024-04-18T23:42:00.241Z,100294.70
2024-04-18T23:44:28.714Z,100295.91
2024-04-18T23:46:58.340Z,100294.31
2024-04-18T23:49:27.127Z,100292.38
2024-04-18T23:51:55.551Z,100295.04
2024-04-18T23:54:23.959Z,100297.42
2024-04-18T23:56:52.679Z,100304.23
2024-04-18T23:59:20.973Z,100309.05
